Time;durP1;ratioP1;P1;durP2;ratioP2;P2;SDS_P1;SDS_P2;PMS_P1;PMS_P2;Temp;Humidity;BMP_temperature;BMP_pressure;BME280_temperature;BME280_humidity;BME280_pressure;Samples;Min_cycle;Max_cycle;Signal;HPM_P1;HPM_P2
2021/11/02 00:00:12;;;;;;;2.70;0.90;;;12.30;99.90;;;;;;5052980;28;20619;-80
2021/11/02 00:02:44;;;;;;;4.30;1.02;;;12.30;99.90;;;;;;5033865;28;20169;-79
2021/11/02 00:05:10;;;;;;;2.00;0.73;;;12.30;99.90;;;;;;5051986;28;20625;-79
2021/11/02 00:07:36;;;;;;;6.60;0.70;;;12.40;99.90;;;;;;5033780;28;20196;-80
2021/11/02 00:10:03;;;;;;;3.43;0.80;;;12.40;99.90;;;;;;5051574;28;20197;-80
2021/11/02 00:12:29;;;;;;;2.50;0.77;;;12.40;99.90;;;;;;5051849;28;20666;-80
2021/11/02 00:14:55;;;;;;;4.17;1.00;;;12.40;99.90;;;;;;5051646;28;20251;-80
2021/11/02 00:17:24;;;;;;;2.57;1.00;;;12.40;99.90;;;;;;5017244;28;20574;-80
2021/11/02 00:19:53;;;;;;;4.75;0.90;;;12.30;99.90;;;;;;5051270;28;20258;-80
2021/11/02 00:22:21;;;;;;;2.67;0.75;;;12.30;99.90;;;;;;5051132;28;20181;-79
2021/11/02 00:27:26;;;;;;;4.40;1.00;;;12.20;99.90;;;;;;5033391;28;20617;-80
2021/11/02 00:29:53;;;;;;;1.63;0.60;;;12.20;99.90;;;;;;5053772;28;20606;-80
2021/11/02 00:32:19;;;;;;;3.78;0.80;;;12.10;99.90;;;;;;5033891;28;20199;-80
2021/11/02 00:34:44;;;;;;;3.03;0.70;;;12.10;99.90;;;;;;5033320;28;20624;-80
2021/11/02 00:37:10;;;;;;;1.80;0.73;;;12.20;99.90;;;;;;5033473;28;20579;-79
2021/11/02 00:39:36;;;;;;;1.80;0.70;;;12.20;99.90;;;;;;5017215;28;20204;-80
2021/11/02 00:42:02;;;;;;;1.33;0.70;;;12.20;99.90;;;;;;5051040;28;20590;-79
2021/11/02 00:44:28;;;;;;;1.88;0.70;;;12.20;99.90;;;;;;5033541;28;20161;-79
2021/11/02 00:46:56;;;;;;;2.13;0.80;;;12.20;99.90;;;;;;5050585;28;20266;-79
2021/11/02 00:49:24;;;;;;;2.55;1.00;;;12.20;99.90;;;;;;5017108;28;20189;-79
2021/11/02 00:51:51;;;;;;;3.30;0.90;;;12.20;99.90;;;;;;5051050;28;20624;-79
2021/11/02 00:54:17;;;;;;;4.47;0.80;;;12.30;99.90;;;;;;5051206;28;20172;-80
2021/11/02 00:56:44;;;;;;;2.95;0.75;;;12.30;99.90;;;;;;5050771;28;20185;-80
2021/11/02 00:59:10;;;;;;;1.60;0.75;;;12.30;99.90;;;;;;5017593;28;20215;-80
2021/11/02 01:01:39;;;;;;;1.80;0.67;;;12.40;99.90;;;;;;5055457;28;20169;-76
2021/11/02 01:04:06;;;;;;;1.27;0.60;;;12.40;99.90;;;;;;5020496;28;20551;-76
2021/11/02 01:06:36;;;;;;;1.58;0.68;;;12.40;99.90;;;;;;5056629;28;20176;-76
2021/11/02 01:09:07;;;;;;;1.60;1.08;;;12.50;99.90;;;;;;5054617;28;20192;-76
2021/11/02 01:11:38;;;;;;;1.70;0.60;;;12.50;99.90;;;;;;5037168;28;20169;-76
2021/11/02 01:14:04;;;;;;;1.50;0.60;;;12.50;99.90;;;;;;5036637;28;20165;-76
2021/11/02 01:16:30;;;;;;;4.63;0.80;;;12.50;99.90;;;;;;5036766;28;20638;-76
2021/11/02 01:18:56;;;;;;;1.58;0.60;;;12.50;99.90;;;;;;5036704;28;20200;-76
2021/11/02 01:21:22;;;;;;;1.67;0.63;;;12.60;99.90;;;;;;5054735;28;20207;-77
2021/11/02 01:23:48;;;;;;;1.90;0.77;;;12.60;99.90;;;;;;5036573;28;20994;-76
2021/11/02 01:26:16;;;;;;;1.75;0.60;;;12.60;99.90;;;;;;5036547;28;20172;-76
2021/11/02 01:28:42;;;;;;;1.80;0.75;;;12.60;99.90;;;;;;5020017;28;20173;-76
2021/11/02 01:31:07;;;;;;;3.40;0.67;;;12.60;99.90;;;;;;5054224;28;20185;-77
2021/11/02 01:33:33;;;;;;;1.63;0.60;;;12.50;99.90;;;;;;5020100;28;21118;-76
2021/11/02 01:35:59;;;;;;;1.70;0.70;;;12.50;99.90;;;;;;5036017;28;20165;-76
2021/11/02 01:38:25;;;;;;;1.17;0.50;;;12.50;99.90;;;;;;5020170;28;21206;-76
2021/11/02 01:40:57;;;;;;;1.92;0.60;;;12.50;99.90;;;;;;5036344;28;20193;-76
2021/11/02 01:43:23;;;;;;;2.00;0.60;;;12.50;99.90;;;;;;5022636;28;20259;-76
2021/11/02 01:45:49;;;;;;;1.40;0.60;;;12.50;99.90;;;;;;5036057;28;20938;-76
2021/11/02 01:48:23;;;;;;;4.40;0.65;;;12.60;99.90;;;;;;5036607;28;20169;-77
2021/11/02 01:50:51;;;;;;;1.45;0.60;;;12.60;99.90;;;;;;5020187;28;20219;-76
2021/11/02 01:53:17;;;;;;;2.65;0.80;;;12.60;99.90;;;;;;5037295;28;20230;-75
2021/11/02 01:55:44;;;;;;;1.40;0.60;;;12.50;99.90;;;;;;5020265;28;20259;-76
2021/11/02 01:58:12;;;;;;;1.58;0.65;;;12.50;99.90;;;;;;5003309;28;20201;-76
2021/11/02 02:00:39;;;;;;;1.73;0.60;;;12.50;99.90;;;;;;5035980;28;20215;-76
2021/11/02 02:03:35;;;;;;;1.92;0.70;;;12.50;99.90;;;;;;5018143;28;20637;-76
2021/11/02 02:06:23;;;;;;;1.83;0.60;;;12.40;99.90;;;;;;5036073;28;20165;-76
2021/11/02 02:09:04;;;;;;;1.55;0.60;;;12.30;99.90;;;;;;5035889;28;20169;-76
2021/11/02 02:12:06;;;;;;;1.42;0.60;;;12.20;99.90;;;;;;5035075;28;20188;-76
2021/11/02 02:15:08;;;;;;;1.23;0.52;;;12.10;99.90;;;;;;5035930;28;20215;-76
2021/11/02 02:17:42;;;;;;;1.40;0.50;;;12.00;99.90;;;;;;4982305;28;20763;-76
2021/11/02 02:20:44;;;;;;;1.33;0.70;;;11.90;99.90;;;;;;5021318;28;20203;-76
2021/11/02 02:23:24;;;;;;;2.53;0.70;;;11.80;99.90;;;;;;4999109;28;20192;-76
2021/11/02 02:26:02;;;;;;;1.45;0.70;;;11.70;99.90;;;;;;5018893;28;20219;-76
2021/11/02 02:28:37;;;;;;;1.30;0.68;;;11.50;99.90;;;;;;5035505;28;20207;-76
2021/11/02 02:31:15;;;;;;;2.03;0.63;;;11.40;99.90;;;;;;5020758;28;20184;-77
2021/11/02 02:33:48;;;;;;;2.38;0.88;;;11.40;99.90;;;;;;5035805;28;20173;-76
2021/11/02 02:36:29;;;;;;;1.88;0.63;;;11.30;99.90;;;;;;5018907;28;20212;-76
2021/11/02 02:39:02;;;;;;;2.45;0.60;;;11.20;99.90;;;;;;5053608;28;20573;-76
2021/11/02 02:41:30;;;;;;;2.78;1.35;;;11.10;99.90;;;;;;5018662;28;20522;-76
2021/11/02 02:43:58;;;;;;;1.77;0.60;;;11.10;99.90;;;;;;5035662;28;20176;-76
2021/11/02 02:46:24;;;;;;;1.20;0.50;;;11.10;99.90;;;;;;5035116;28;20231;-77
2021/11/02 02:48:50;;;;;;;1.40;0.82;;;11.00;99.90;;;;;;5018871;28;20256;-76
2021/11/02 02:51:17;;;;;;;1.30;0.60;;;11.00;99.90;;;;;;5018578;28;20292;-76
2021/11/02 02:53:49;;;;;;;1.85;0.65;;;10.90;99.90;;;;;;5019705;28;20596;-76
2021/11/02 02:56:18;;;;;;;1.20;0.60;;;10.90;99.90;;;;;;5019052;28;20188;-76
2021/11/02 02:58:47;;;;;;;1.50;0.50;;;10.80;99.90;;;;;;5018764;28;20207;-76
2021/11/02 03:01:15;;;;;;;1.08;0.52;;;10.90;99.90;;;;;;5034830;28;20201;-76
2021/11/02 03:03:48;;;;;;;1.10;0.60;;;10.90;99.90;;;;;;5034935;28;20173;-76
2021/11/02 03:06:17;;;;;;;1.40;0.57;;;10.90;99.90;;;;;;5034498;28;20170;-76
2021/11/02 03:08:44;;;;;;;1.30;0.60;;;10.90;99.90;;;;;;5018862;28;20181;-76
2021/11/02 03:11:13;;;;;;;1.07;0.53;;;11.00;99.90;;;;;;5018251;28;20189;-76
2021/11/02 03:13:45;;;;;;;1.40;0.60;;;11.00;99.90;;;;;;5001637;28;20625;-76
2021/11/02 03:16:14;;;;;;;1.30;0.60;;;11.00;99.90;;;;;;5052317;28;20173;-76
2021/11/02 03:44:12;;;;;;;1.30;0.60;;;10.90;99.90;;;;;;5052053;28;20615;-76
2021/11/02 03:54:49;;;;;;;1.20;0.50;;;10.80;99.90;;;;;;5034179;28;20200;-76
2021/11/02 04:25:27;;;;;;;1.30;0.60;;;10.70;99.90;;;;;;5033876;28;20169;-76
2021/11/02 04:30:34;;;;;;;1.60;0.80;;;10.60;99.90;;;;;;5017123;28;20196;-76
2021/11/02 05:20:42;;;;;;;1.63;0.60;;;10.00;99.90;;;;;;5034340;28;20204;-76
2021/11/02 05:53:41;;;;;;;1.27;0.70;;;9.80;99.90;;;;;;5056969;28;20223;-77
2021/11/02 05:58:45;;;;;;;2.47;0.70;;;9.80;99.90;;;;;;5056149;28;20219;-77
2021/11/02 06:04:18;;;;;;;2.60;1.50;;;9.70;99.90;;;;;;5058564;28;20172;-77
2021/11/02 06:07:08;;;;;;;2.40;0.80;;;9.70;99.90;;;;;;5073475;28;20222;-77
2021/11/02 06:09:49;;;;;;;2.35;0.70;;;9.70;99.90;;;;;;5056016;28;20189;-76
2021/11/02 06:29:17;;;;;;;1.83;0.88;;;9.80;99.90;;;;;;5073572;28;20706;-76
2021/11/02 06:31:53;;;;;;;2.03;0.77;;;9.80;99.90;;;;;;5073347;28;20168;-75
2021/11/02 06:34:26;;;;;;;2.88;1.15;;;9.80;99.90;;;;;;5073440;28;20176;-77
2021/11/02 06:39:37;;;;;;;2.50;0.80;;;9.80;99.90;;;;;;5074826;28;20242;-76
2021/11/02 07:17:27;;;;;;;4.63;0.85;;;10.00;99.90;;;;;;5057683;28;20596;-76
2021/11/02 07:19:59;;;;;;;6.82;1.20;;;10.10;99.90;;;;;;5054498;28;20605;-76
2021/11/02 08:46:38;;;;;;;2.00;1.00;;;12.20;99.90;;;;;;5052695;28;20263;-78
2021/11/02 08:48:56;;;;;;;1.48;0.75;;;12.20;99.90;;;;;;5050037;28;20184;-78
2021/11/02 08:51:24;;;;;;;2.03;0.93;;;12.20;99.90;;;;;;5036038;28;20184;-77
2021/11/02 08:53:57;;;;;;;5.05;1.08;;;12.10;99.90;;;;;;5036372;28;20640;-77
2021/11/02 08:56:23;;;;;;;2.38;1.00;;;12.10;99.90;;;;;;5052652;28;20508;-78
2021/11/02 08:58:53;;;;;;;2.07;0.83;;;12.10;99.90;;;;;;5053365;28;20204;-78
2021/11/02 09:01:23;;;;;;;3.00;0.90;;;12.10;99.90;;;;;;5052819;28;20637;-78
2021/11/02 09:03:59;;;;;;;3.22;0.80;;;12.20;99.90;;;;;;5053265;28;20156;-78
2021/11/02 09:06:25;;;;;;;4.70;1.65;;;12.20;99.90;;;;;;5056222;28;20164;-78
2021/11/02 09:08:54;;;;;;;2.80;1.00;;;12.20;99.90;;;;;;5052805;28;20172;-77
2021/11/02 09:11:22;;;;;;;2.22;0.80;;;12.20;99.90;;;;;;5070570;28;20590;-77
2021/11/02 09:13:51;;;;;;;2.03;0.80;;;12.20;99.90;;;;;;5052970;28;20592;-77
2021/11/02 09:16:18;;;;;;;2.53;0.90;;;12.20;99.90;;;;;;5070659;28;20168;-77
2021/11/02 09:18:46;;;;;;;3.22;1.13;;;12.10;99.90;;;;;;5070606;28;20249;-77
2021/11/02 09:21:12;;;;;;;4.15;1.30;;;12.10;99.90;;;;;;5073436;28;20555;-78
2021/11/02 09:23:42;;;;;;;2.88;0.77;;;12.00;99.90;;;;;;5074323;28;20561;-78
2021/11/02 09:26:08;;;;;;;2.45;0.90;;;11.90;99.90;;;;;;5056336;28;20165;-78
2021/11/02 09:28:35;;;;;;;3.05;0.80;;;11.90;99.90;;;;;;5074326;28;20164;-77
2021/11/02 09:31:02;;;;;;;2.78;0.85;;;11.90;99.90;;;;;;5074422;28;20241;-78
2021/11/02 09:33:28;;;;;;;3.85;0.90;;;11.90;99.90;;;;;;5074008;28;20529;-77
2021/11/02 09:36:02;;;;;;;2.10;0.80;;;11.90;99.90;;;;;;5039552;28;20179;-78
2021/11/02 09:38:28;;;;;;;1.58;1.10;;;11.80;99.90;;;;;;5074045;28;20195;-78
2021/11/02 09:41:17;;;;;;;2.53;0.80;;;11.80;99.90;;;;;;5074122;28;20709;-78
2021/11/02 09:44:07;;;;;;;2.20;0.90;;;11.80;99.90;;;;;;5074625;28;20160;-77
2021/11/02 09:47:02;;;;;;;2.70;0.80;;;11.80;99.90;;;;;;5073674;28;20172;-78
2021/11/02 09:49:43;;;;;;;2.22;0.68;;;11.80;99.90;;;;;;5073617;28;20196;-78
2021/11/02 09:52:20;;;;;;;3.28;0.75;;;11.80;99.90;;;;;;5073736;28;20530;-77
2021/11/02 09:54:46;;;;;;;2.80;0.80;;;11.80;99.90;;;;;;5073479;28;20168;-77
2021/11/02 09:57:42;;;;;;;2.17;0.80;;;11.70;99.90;;;;;;5073565;28;20500;-76
2021/11/02 10:00:11;;;;;;;2.10;0.93;;;11.70;99.90;;;;;;5059066;28;20636;-76
2021/11/02 10:03:07;;;;;;;1.95;0.77;;;11.60;99.90;;;;;;5073648;28;20176;-76
2021/11/02 10:05:49;;;;;;;2.40;0.93;;;11.50;99.90;;;;;;5038982;28;20177;-76
2021/11/02 10:08:57;;;;;;;1.42;0.70;;;11.40;99.90;;;;;;5073497;28;20156;-76
2021/11/02 10:11:31;;;;;;;3.20;0.80;;;11.40;99.90;;;;;;4940492;28;20187;-79
2021/11/02 10:14:27;;;;;;;2.95;1.10;;;11.30;99.90;;;;;;5058844;28;20176;-79
2021/11/02 10:17:09;;;;;;;1.80;0.80;;;11.30;99.90;;;;;;5038597;28;20226;-79
2021/11/02 10:19:51;;;;;;;2.72;0.90;;;11.40;99.90;;;;;;5074841;28;20204;-80
2021/11/02 10:22:52;;;;;;;3.13;1.10;;;11.50;99.90;;;;;;5074822;28;20172;-78
2021/11/02 10:25:44;;;;;;;2.45;1.10;;;11.50;99.90;;;;;;5003068;28;20251;-79
2021/11/02 10:28:48;;;;;;;2.72;0.90;;;11.70;99.90;;;;;;5055871;28;20172;-79
2021/11/02 10:31:52;;;;;;;1.40;0.90;;;11.70;99.90;;;;;;5073324;28;20566;-79
2021/11/02 10:34:46;;;;;;;4.78;1.50;;;11.70;99.90;;;;;;5056082;28;20563;-80
2021/11/02 10:37:36;;;;;;;4.20;1.05;;;11.80;99.90;;;;;;5073215;28;20164;-79
2021/11/02 10:40:20;;;;;;;2.65;0.90;;;11.80;99.90;;;;;;5073870;28;20565;-79
2021/11/02 10:43:08;;;;;;;2.17;1.20;;;11.80;99.90;;;;;;5055380;28;20188;-79
2021/11/02 10:45:41;;;;;;;2.40;1.10;;;11.80;99.90;;;;;;5055230;28;20718;-79
2021/11/02 10:48:10;;;;;;;2.35;1.23;;;11.80;99.90;;;;;;5073474;28;20176;-80
2021/11/02 10:50:44;;;;;;;3.30;1.27;;;11.80;99.90;;;;;;5072619;28;20191;-79
2021/11/02 10:53:11;;;;;;;3.58;1.23;;;11.90;99.90;;;;;;5055009;28;20255;-79
2021/11/02 10:56:04;;;;;;;3.13;1.30;;;12.00;99.90;;;;;;5072715;28;20218;-79
2021/11/02 10:58:35;;;;;;;1.95;1.00;;;12.10;99.90;;;;;;5056117;28;20558;-79
2021/11/02 11:01:04;;;;;;;1.38;0.85;;;12.20;99.90;;;;;;5063857;28;20203;-79
2021/11/02 11:03:31;;;;;;;3.35;1.00;;;12.30;99.90;;;;;;5054802;28;20195;-79
2021/11/02 11:06:02;;;;;;;2.50;1.10;;;12.30;99.90;;;;;;5054675;28;20168;-79
2021/11/02 11:08:32;;;;;;;2.33;1.10;;;12.30;99.90;;;;;;5072656;28;20176;-79
2021/11/02 11:11:00;;;;;;;2.22;1.10;;;12.30;99.90;;;;;;5072535;28;20363;-78
2021/11/02 11:13:28;;;;;;;6.20;1.20;;;12.40;99.90;;;;;;5054524;28;20176;-79
2021/11/02 11:16:09;;;;;;;3.10;1.17;;;12.40;99.90;;;;;;5071866;28;20164;-79
2021/11/02 11:18:53;;;;;;;2.05;1.20;;;12.50;99.90;;;;;;5072242;28;20610;-80
2021/11/02 11:21:27;;;;;;;2.90;1.33;;;12.70;99.90;;;;;;5071975;28;20180;-79
2021/11/02 11:24:09;;;;;;;2.63;1.30;;;12.80;99.90;;;;;;5072334;28;20164;-79
2021/11/02 11:26:35;;;;;;;4.37;1.10;;;12.80;99.90;;;;;;5053898;28;20538;-79
2021/11/02 11:29:06;;;;;;;2.47;1.70;;;12.90;99.90;;;;;;5072055;28;20665;-80
2021/11/02 11:31:32;;;;;;;2.87;1.40;;;12.90;99.90;;;;;;5071901;28;20674;-80
2021/11/02 11:34:03;;;;;;;3.50;1.60;;;12.90;99.90;;;;;;5076518;28;20567;-80
2021/11/02 11:36:31;;;;;;;1.70;1.00;;;12.90;99.90;;;;;;5053500;28;20669;-79
2021/11/02 11:39:03;;;;;;;2.43;1.20;;;13.00;99.90;;;;;;5054065;28;20650;-81
2021/11/02 11:41:33;;;;;;;2.33;1.00;;;13.10;99.90;;;;;;5062592;28;21142;-80
2021/11/02 11:44:04;;;;;;;2.63;1.63;;;13.30;99.90;;;;;;5053176;28;20583;-80
2021/11/02 11:46:32;;;;;;;4.63;1.03;;;13.40;99.90;;;;;;5051465;28;20568;-80
2021/11/02 11:48:59;;;;;;;1.90;1.07;;;13.40;99.90;;;;;;5051991;28;20585;-79
2021/11/02 11:51:28;;;;;;;1.70;0.90;;;13.40;99.90;;;;;;5067483;28;20578;-79
2021/11/02 11:54:05;;;;;;;1.60;1.10;;;13.50;99.90;;;;;;5072690;28;20570;-80
2021/11/02 11:56:36;;;;;;;2.00;1.00;;;13.60;99.90;;;;;;5065121;28;20571;-78
2021/11/02 11:59:03;;;;;;;5.40;1.40;;;13.60;99.90;;;;;;5075360;28;20635;-79
2021/11/02 12:01:56;;;;;;;3.80;1.17;;;13.60;99.90;;;;;;5095880;28;20577;-80
2021/11/02 12:04:30;;;;;;;2.57;1.53;;;13.60;99.90;;;;;;5095839;28;20602;-80
2021/11/02 12:07:28;;;;;;;10.17;1.40;;;13.70;99.90;;;;;;5110760;28;20570;-79
2021/11/02 12:09:54;;;;;;;3.13;1.90;;;13.70;99.90;;;;;;5101165;28;20716;-78
2021/11/02 12:12:23;;;;;;;2.73;1.47;;;13.70;99.90;;;;;;5075597;28;20680;-79
2021/11/02 12:14:52;;;;;;;2.43;1.40;;;13.70;99.90;;;;;;5106306;28;20566;-80
2021/11/02 12:17:24;;;;;;;2.10;1.10;;;13.70;99.90;;;;;;5110308;28;20628;-79
2021/11/02 12:20:05;;;;;;;1.93;1.00;;;13.70;99.90;;;;;;5107825;28;20631;-78
2021/11/02 12:22:53;;;;;;;2.87;1.47;;;13.70;99.90;;;;;;5099427;28;20580;-79
2021/11/02 12:25:23;;;;;;;1.70;1.27;;;13.70;99.90;;;;;;5075462;28;20647;-79
2021/11/02 12:27:50;;;;;;;1.73;1.00;;;13.80;99.90;;;;;;5075127;28;20562;-78
2021/11/02 12:30:21;;;;;;;1.80;1.13;;;13.70;99.90;;;;;;5092342;28;20671;-79
2021/11/02 12:32:55;;;;;;;2.03;0.90;;;13.60;99.90;;;;;;5073355;28;20597;-78
2021/11/02 12:35:45;;;;;;;4.63;1.13;;;13.60;99.90;;;;;;5073261;28;20611;-78
2021/11/02 12:38:12;;;;;;;2.33;0.90;;;13.50;99.90;;;;;;5073650;28;20573;-79
2021/11/02 12:40:41;;;;;;;3.13;1.20;;;13.40;99.90;;;;;;5091415;28;20589;-79
2021/11/02 12:43:28;;;;;;;3.03;1.20;;;13.30;99.90;;;;;;5091037;28;20565;-78
2021/11/02 12:46:00;;;;;;;2.60;1.03;;;13.20;99.90;;;;;;5091278;28;20569;-78
2021/11/02 12:48:28;;;;;;;2.40;1.13;;;13.10;99.90;;;;;;5094845;28;20568;-78
2021/11/02 12:50:56;;;;;;;4.55;1.00;;;13.00;99.90;;;;;;5073201;28;20602;-78
2021/11/02 12:53:22;;;;;;;4.07;1.43;;;12.90;99.90;;;;;;5091062;28;20663;-78
2021/11/02 12:55:48;;;;;;;3.93;1.20;;;12.80;99.90;;;;;;5075164;28;20569;-78
2021/11/02 12:58:18;;;;;;;4.95;1.50;;;12.70;99.90;;;;;;5095107;28;21116;-79
2021/11/02 13:00:50;;;;;;;3.10;1.60;;;12.70;99.90;;;;;;5094909;28;20329;-77
2021/11/02 13:03:32;;;;;;;2.60;1.38;;;12.60;99.90;;;;;;5076733;28;20225;-78
2021/11/02 13:06:07;;;;;;;3.60;1.50;;;12.60;99.90;;;;;;5095068;28;20176;-78
2021/11/02 13:08:53;;;;;;;2.28;1.45;;;12.60;99.90;;;;;;5094924;28;20243;-79
2021/11/02 13:11:21;;;;;;;2.15;1.40;;;12.60;99.90;;;;;;5077209;28;20269;-79
2021/11/02 13:14:10;;;;;;;2.97;1.60;;;12.60;99.90;;;;;;5094970;28;20163;-79
2021/11/02 13:17:17;;;;;;;3.10;1.47;;;12.60;99.90;;;;;;5076557;28;20585;-79
2021/11/02 13:19:49;;;;;;;6.53;1.52;;;12.60;99.90;;;;;;4976577;28;20641;-79
2021/11/02 13:22:18;;;;;;;2.90;1.40;;;12.60;99.90;;;;;;5064241;28;20176;-79
2021/11/02 13:25:10;;;;;;;2.95;1.40;;;12.50;99.90;;;;;;5097447;28;21281;-79
2021/11/02 13:27:42;;;;;;;5.30;1.70;;;12.50;99.90;;;;;;5078083;28;20647;-79
2021/11/02 13:30:37;;;;;;;3.33;1.30;;;12.50;99.90;;;;;;5076764;28;20731;-79
2021/11/02 13:33:19;;;;;;;1.90;1.35;;;12.40;99.90;;;;;;5094805;28;20516;-78
2021/11/02 13:35:50;;;;;;;3.95;1.45;;;12.50;99.90;;;;;;5076054;28;20229;-78
2021/11/02 13:38:40;;;;;;;2.93;1.63;;;12.40;99.90;;;;;;5076406;28;20322;-78
2021/11/02 13:41:08;;;;;;;2.10;1.55;;;12.50;99.90;;;;;;5076023;28;21006;-78
2021/11/02 13:43:41;;;;;;;2.45;1.50;;;12.40;99.90;;;;;;5094524;28;20171;-79
2021/11/02 13:46:10;;;;;;;4.82;1.42;;;12.40;99.90;;;;;;5076345;28;20176;-79
2021/11/02 13:48:36;;;;;;;1.63;1.13;;;12.40;99.90;;;;;;5080287;28;20529;-79
2021/11/02 13:51:04;;;;;;;1.90;1.08;;;12.40;99.90;;;;;;5096688;28;20609;-78
2021/11/02 13:53:34;;;;;;;1.60;1.25;;;12.50;99.90;;;;;;5098277;28;20160;-78
2021/11/02 13:56:03;;;;;;;1.58;0.80;;;12.50;99.90;;;;;;5087690;28;20263;-77
2021/11/02 13:58:29;;;;;;;3.03;1.00;;;12.50;99.90;;;;;;5068201;28;20563;-78
2021/11/02 14:00:55;;;;;;;4.13;1.10;;;12.50;99.90;;;;;;5101417;28;20225;-79
2021/11/02 14:03:26;;;;;;;2.42;1.27;;;12.50;99.90;;;;;;5101930;28;20565;-78
2021/11/02 14:05:54;;;;;;;2.80;1.10;;;12.50;99.90;;;;;;5104694;28;20174;-78
2021/11/02 14:08:22;;;;;;;2.65;1.00;;;12.60;99.90;;;;;;5105953;28;20221;-79
2021/11/02 14:10:55;;;;;;;1.75;1.35;;;12.60;99.90;;;;;;5100267;28;20244;-78
2021/11/02 14:13:45;;;;;;;2.90;1.13;;;12.50;99.90;;;;;;5097500;28;20163;-78
2021/11/02 14:16:15;;;;;;;2.08;1.10;;;12.50;99.90;;;;;;5077886;28;20200;-78
2021/11/02 14:18:41;;;;;;;2.97;1.95;;;12.50;99.90;;;;;;5095111;28;20207;-78
2021/11/02 14:21:11;;;;;;;2.60;1.90;;;12.50;99.90;;;;;;5098176;28;20602;-78
2021/11/02 14:23:40;;;;;;;3.75;1.20;;;12.40;99.90;;;;;;5095847;28;20560;-78
2021/11/02 14:26:29;;;;;;;1.75;0.90;;;12.40;99.90;;;;;;5077124;28;20695;-77
2021/11/02 14:29:00;;;;;;;1.50;1.00;;;12.30;99.90;;;;;;5078580;28;20236;-77
2021/11/02 14:31:38;;;;;;;2.03;0.80;;;12.30;99.90;;;;;;5094385;28;20179;-77
2021/11/02 14:34:05;;;;;;;1.50;0.80;;;12.30;99.90;;;;;;5075188;28;20663;-77
2021/11/02 14:36:41;;;;;;;1.52;0.70;;;12.30;99.90;;;;;;5076418;28;20163;-77
2021/11/02 14:39:12;;;;;;;2.00;0.52;;;12.30;99.90;;;;;;5098775;28;20195;-77
2021/11/02 14:41:49;;;;;;;1.08;0.50;;;12.20;99.90;;;;;;5075805;28;20244;-78
2021/11/02 14:44:15;;;;;;;1.52;0.50;;;12.30;99.90;;;;;;5093741;28;20198;-77
2021/11/02 14:46:45;;;;;;;1.50;0.60;;;12.30;99.90;;;;;;5074948;28;20164;-78
2021/11/02 14:49:43;;;;;;;1.75;0.50;;;12.30;99.90;;;;;;5075336;28;20168;-78
2021/11/02 14:52:11;;;;;;;1.10;0.50;;;12.30;99.90;;;;;;5037470;28;20187;-78
2021/11/02 14:54:47;;;;;;;1.42;0.70;;;12.40;99.90;;;;;;5075104;28;20168;-78
2021/11/02 14:57:19;;;;;;;1.20;0.60;;;12.40;99.90;;;;;;5074491;28;20171;-77
2021/11/02 14:59:52;;;;;;;2.10;0.70;;;12.40;99.90;;;;;;5084072;28;20203;-77
2021/11/02 15:02:40;;;;;;;1.20;0.70;;;12.40;99.90;;;;;;5041484;28;20179;-78
2021/11/02 15:05:10;;;;;;;1.50;0.70;;;12.40;99.90;;;;;;5093157;28;20176;-77
2021/11/02 15:07:45;;;;;;;1.63;0.90;;;12.40;99.90;;;;;;5092542;28;20163;-78
2021/11/02 15:10:14;;;;;;;1.95;0.90;;;12.40;99.90;;;;;;5058048;28;20597;-78
2021/11/02 15:12:44;;;;;;;2.57;1.80;;;12.40;99.90;;;;;;5074870;28;20199;-77
2021/11/02 15:15:10;;;;;;;3.17;1.83;;;12.30;99.90;;;;;;5078696;28;20582;-78
2021/11/02 15:17:39;;;;;;;4.10;2.50;;;12.30;99.90;;;;;;5074276;28;20684;-78
2021/11/02 15:20:06;;;;;;;3.03;1.70;;;12.30;99.90;;;;;;5092724;28;20629;-79
2021/11/02 15:22:32;;;;;;;4.10;2.15;;;12.20;99.90;;;;;;5092363;28;20220;-79
2021/11/02 15:25:01;;;;;;;3.13;1.35;;;12.30;99.90;;;;;;5092889;28;20163;-80
2021/11/02 15:27:36;;;;;;;3.60;2.10;;;12.30;99.90;;;;;;5092665;28;20162;-79
2021/11/02 15:30:06;;;;;;;6.00;1.60;;;12.30;99.90;;;;;;5092396;28;20982;-79
2021/11/02 15:32:36;;;;;;;3.92;1.70;;;12.40;99.90;;;;;;5092715;28;20228;-80
2021/11/02 15:35:05;;;;;;;4.50;3.05;;;12.40;99.90;;;;;;5057989;28;20276;-80
2021/11/02 15:37:34;;;;;;;4.30;3.50;;;12.50;99.90;;;;;;5092899;28;20168;-80
2021/11/02 15:40:05;;;;;;;5.30;3.75;;;12.50;99.90;;;;;;5107348;22;20690;-75
2021/11/02 15:42:42;;;;;;;3.65;2.28;;;12.50;99.90;;;;;;5071033;28;20184;-75
2021/11/02 15:45:13;;;;;;;5.63;2.27;;;12.50;99.90;;;;;;5072017;28;20186;-75
2021/11/02 15:47:51;;;;;;;3.03;2.00;;;12.60;99.90;;;;;;5074699;28;20919;-76
2021/11/02 15:50:23;;;;;;;4.57;2.40;;;12.50;99.90;;;;;;5074249;28;20994;-75
2021/11/02 15:52:50;;;;;;;3.83;1.70;;;12.50;99.90;;;;;;5055151;28;20165;-75
2021/11/02 15:55:19;;;;;;;3.83;1.48;;;12.60;99.90;;;;;;5019570;28;20173;-74
2021/11/02 15:57:48;;;;;;;3.40;1.95;;;12.50;99.90;;;;;;5058180;28;20173;-75
2021/11/02 16:00:16;;;;;;;4.38;2.38;;;12.50;99.90;;;;;;5056558;28;20208;-75
2021/11/02 16:02:45;;;;;;;4.50;2.95;;;12.50;99.90;;;;;;5053724;28;20166;-75
2021/11/02 16:05:25;;;;;;;3.67;1.73;;;12.50;99.90;;;;;;5051897;28;20248;-75
2021/11/02 16:07:53;;;;;;;3.65;2.47;;;12.50;99.90;;;;;;5052870;28;20172;-75
2021/11/02 16:10:33;;;;;;;2.78;1.92;;;12.50;99.90;;;;;;5036675;28;20204;-74
2021/11/02 16:13:06;;;;;;;3.47;1.80;;;12.50;99.90;;;;;;5071554;28;20192;-75
2021/11/02 16:15:38;;;;;;;10.02;2.85;;;12.40;99.90;;;;;;5071083;28;20268;-74
2021/11/02 16:18:13;;;;;;;3.10;1.85;;;12.40;99.90;;;;;;5036808;28;20180;-75
2021/11/02 16:20:41;;;;;;;2.67;1.48;;;12.40;99.90;;;;;;5071430;28;20198;-75
2021/11/02 16:23:15;;;;;;;3.13;1.55;;;12.30;99.90;;;;;;5071252;28;20168;-75
2021/11/02 16:25:54;;;;;;;2.85;1.30;;;12.30;99.90;;;;;;5053461;28;20172;-75
2021/11/02 16:28:29;;;;;;;4.15;1.02;;;12.30;99.90;;;;;;5053522;28;20163;-75
2021/11/02 16:30:58;;;;;;;3.90;1.02;;;12.30;99.90;;;;;;5070658;28;20194;-75
2021/11/02 16:33:38;;;;;;;1.33;0.80;;;12.30;99.90;;;;;;5053375;28;20764;-73
2021/11/02 16:36:24;;;;;;;2.80;1.20;;;12.20;99.90;;;;;;5071006;28;20168;-76
2021/11/02 16:39:02;;;;;;;1.45;0.80;;;12.20;99.90;;;;;;5071186;28;20218;-75
2021/11/02 16:41:33;;;;;;;2.60;0.82;;;12.20;99.90;;;;;;5070746;28;20211;-76
2021/11/02 16:44:07;;;;;;;1.20;0.82;;;12.20;99.90;;;;;;5053026;28;20271;-75
2021/11/02 16:46:39;;;;;;;4.97;1.23;;;12.20;99.90;;;;;;5052913;28;20176;-75
2021/11/02 16:49:25;;;;;;;1.50;0.90;;;12.10;99.90;;;;;;5053402;28;20176;-75
2021/11/02 16:52:00;;;;;;;2.47;0.90;;;12.00;99.90;;;;;;5071011;28;20271;-76
2021/11/02 16:54:28;;;;;;;3.97;1.55;;;12.00;99.90;;;;;;5053426;28;20183;-75
2021/11/02 16:56:59;;;;;;;1.80;1.00;;;11.90;99.90;;;;;;5036341;28;20180;-75
2021/11/02 16:59:50;;;;;;;2.30;1.10;;;11.80;99.90;;;;;;5053081;28;20291;-75
2021/11/02 17:02:29;;;;;;;3.67;1.30;;;11.80;99.90;;;;;;5052670;28;20172;-75
2021/11/02 17:05:04;;;;;;;2.65;1.20;;;11.80;99.90;;;;;;5071060;28;20168;-74
2021/11/02 17:07:47;;;;;;;2.17;1.05;;;11.70;99.90;;;;;;5070237;28;20639;-74
2021/11/02 17:10:22;;;;;;;4.55;0.98;;;11.70;99.90;;;;;;5071116;28;20188;-74
2021/11/02 17:13:06;;;;;;;2.75;0.93;;;11.70;99.90;;;;;;5055068;28;20173;-74
2021/11/02 17:15:36;;;;;;;2.13;1.10;;;11.70;99.90;;;;;;5016686;28;20534;-74
2021/11/02 17:18:04;;;;;;;2.55;1.00;;;11.70;99.90;;;;;;5032474;28;20169;-73
2021/11/02 17:20:30;;;;;;;1.60;0.90;;;11.70;99.90;;;;;;5032984;28;20343;-74
2021/11/02 17:22:56;;;;;;;3.93;1.13;;;11.70;99.90;;;;;;5033049;28;20255;-74
2021/11/02 17:25:22;;;;;;;2.03;0.90;;;11.70;99.90;;;;;;5032420;28;21015;-74
2021/11/02 17:27:50;;;;;;;2.20;1.30;;;11.70;99.90;;;;;;5050598;28;20158;-74
2021/11/02 17:30:28;;;;;;;2.08;1.08;;;11.70;99.90;;;;;;5050667;28;20193;-74
2021/11/02 17:32:55;;;;;;;1.75;1.38;;;11.70;99.90;;;;;;5050876;28;20161;-74
2021/11/02 17:35:22;;;;;;;2.13;1.02;;;11.70;99.90;;;;;;5050875;28;20173;-74
2021/11/02 17:37:51;;;;;;;1.95;1.20;;;11.70;99.90;;;;;;5050863;28;20181;-74
2021/11/02 17:40:24;;;;;;;2.53;1.40;;;11.70;99.90;;;;;;5032902;28;20716;-74
2021/11/02 17:42:59;;;;;;;2.33;1.10;;;11.70;99.90;;;;;;5054054;28;20306;-74
2021/11/02 17:45:26;;;;;;;1.85;1.20;;;11.70;99.90;;;;;;5036410;28;20719;-74
2021/11/02 17:47:54;;;;;;;3.03;1.00;;;11.70;99.90;;;;;;5054384;28;20162;-74
2021/11/02 17:50:25;;;;;;;3.38;1.35;;;11.70;99.90;;;;;;5035909;28;20215;-74
2021/11/02 17:52:52;;;;;;;2.97;1.42;;;11.70;99.90;;;;;;5036678;28;20173;-74
2021/11/02 17:55:18;;;;;;;3.25;1.63;;;11.70;99.90;;;;;;5036677;28;20175;-74
2021/11/02 17:57:46;;;;;;;1.70;1.10;;;11.70;99.90;;;;;;5054447;28;20391;-74
2021/11/02 18:00:16;;;;;;;1.35;1.02;;;11.70;99.90;;;;;;5061983;28;20211;-73
2021/11/02 18:02:42;;;;;;;1.55;1.20;;;11.70;99.90;;;;;;5065245;28;20177;-74
2021/11/02 18:05:10;;;;;;;1.83;1.30;;;11.60;99.90;;;;;;5064186;28;20204;-74
2021/11/02 18:07:37;;;;;;;1.50;1.30;;;11.60;99.90;;;;;;5064428;28;20309;-74